W8WLC-15 Weather Reports


time (UTC)temp
C
wind
direction
speed
KPH
gust
KPH
rain 1hr
cm
rain 24hr
cm
rain mn
cm
humidity
%
barometer
mb
20211017154333 12 287 11.3 19.3 0.00 0.36 0.03 83 1012.4
20211017153333 11 275 8.0 14.5 0.00 0.36 0.03 83 1012.4
20211017152333 10 279 3.2 6.4 0.00 0.36 0.03 87 1012.5
20211017151333 10 0 0.0 4.8 0.00 0.36 0.03 85 1012.6
20211017150333 10 63 1.6 12.9 0.00 0.36 0.03 84 1013.0
20211017145333 10 318 9.7 22.5 0.00 0.36 0.03 83 1012.9
20211017144333 10 294 16.1 24.1 0.00 0.36 0.03 85 1012.6
20211017143334 10 282 17.7 24.1 0.00 0.36 0.03 87 1012.3
20211017142333 10 273 8.0 25.7 0.00 0.36 0.03 88 1012.1
20211017141333 9 274 9.7 20.9 0.00 0.36 0.03 92 1012.2
20211017140334 8 267 8.0 12.9 0.00 0.36 0.03 93 1012.3
20211017135333 8 266 4.8 11.3 0.00 0.36 0.03 94 1012.3
20211017134333 7 266 4.8 9.7 0.00 0.36 0.03 94 1012.4
20211017133333 7 268 3.2 9.7 0.00 0.36 0.03 94 1012.3
20211017132333 7 269 3.2 9.7 0.00 0.36 0.03 95 1012.4
20211017131334 7 269 4.8 11.3 0.00 0.36 0.03 95 1012.5
20211017130334 7 267 3.2 6.4 0.00 0.36 0.03 95 1012.4
20211017125333 7 269 1.6 4.8 0.00 0.36 0.03 95 1012.3
20211017124333 6 268 1.6 6.4 0.00 0.36 0.03 96 1012.3
20211017123333 6 270 1.6 6.4 0.00 0.36 0.03 96 1012.3
20211017122333 6 268 1.6 6.4 0.00 0.36 0.03 96 1012.4
20211017121333 6 270 1.6 9.7 0.00 0.36 0.03 96 1012.4
20211017120333 6 271 4.8 9.7 0.00 0.36 0.03 96 1012.3
20211017115334 6 270 6.4 11.3 0.00 0.36 0.03 95 1012.2
20211017114333 6 276 6.4 11.3 0.00 0.36 0.03 95 1012.3
20211017113333 6 273 4.8 9.7 0.00 0.36 0.03 95 1012.1
20211017112333 6 267 3.2 6.4 0.00 0.36 0.03 95 1012.0
20211017111334 6 268 1.6 9.7 0.00 0.36 0.03 95 1012.0
20211017110333 6 267 3.2 8.0 0.00 0.36 0.03 95 1012.0
20211017105333 6 270 4.8 12.9 0.00 0.36 0.03 95 1012.0
20211017104333 6 273 8.0 11.3 0.00 0.36 0.03 95 1012.1
20211017103333 6 268 3.2 6.4 0.00 0.36 0.03 95 1012.0
20211017102333 6 268 3.2 9.7 0.00 0.36 0.03 95 1011.9
20211017101333 6 268 3.2 9.7 0.00 0.36 0.03 95 1011.9
20211017100333 6 266 3.2 9.7 0.00 0.36 0.03 95 1011.8
20211017095333 6 264 1.6 6.4 0.00 0.36 0.03 96 1011.7
20211017094333 6 258 1.6 6.4 0.00 0.36 0.03 96 1011.7
20211017093333 6 270 4.8 9.7 0.00 0.36 0.03 96 1011.7
20211017092333 6 268 1.6 9.7 0.00 0.36 0.03 96 1011.6
20211017091333 6 271 1.6 9.7 0.00 0.36 0.03 96 1011.5
20211017090333 6 268 1.6 6.4 0.00 0.36 0.03 96 1011.4
20211017085333 6 268 1.6 6.4 0.00 0.36 0.03 95 1011.4
20211017084334 6 270 3.2 9.7 0.00 0.36 0.03 95 1011.3
20211017083333 6 275 6.4 11.3 0.00 0.36 0.03 95 1011.3
20211017082334 6 274 6.4 11.3 0.00 0.36 0.03 95 1011.2
20211017081333 6 270 4.8 9.7 0.00 0.36 0.03 95 1011.3
20211017080334 6 269 3.2 9.7 0.00 0.36 0.03 94 1011.3
20211017075333 6 269 4.8 11.3 0.00 0.36 0.03 94 1011.4
20211017074334 6 274 8.0 14.5 0.00 0.36 0.03 93 1011.4
20211017073334 6 272 8.0 12.9 0.00 0.36 0.03 94 1011.3
20211017072333 6 274 6.4 11.3 0.00 0.36 0.03 94 1011.4
20211017071333 6 274 8.0 12.9 0.00 0.36 0.03 93 1011.2
20211017070334 6 274 8.0 17.7 0.00 0.36 0.03 92 1011.3
20211017065334 7 288 12.9 24.1 0.00 0.36 0.03 92 1011.3
20211017064334 6 287 12.9 22.5 0.00 0.36 0.03 93 1011.4
20211017063333 6 289 17.7 25.7 0.00 0.36 0.03 92 1011.5
20211017062333 6 290 12.9 19.3 0.00 0.36 0.03 93 1011.4
20211017061333 6 285 12.9 19.3 0.00 0.36 0.03 93 1011.3
20211017060333 6 290 12.9 19.3 0.00 0.36 0.03 93 1011.2
20211017055334 6 288 12.9 19.3 0.00 0.36 0.03 93 1011.2
20211017054334 7 288 14.5 24.1 0.00 0.36 0.03 92 1011.1
20211017053334 7 292 12.9 25.7 0.00 0.36 0.03 92 1011.1
20211017052334 7 292 12.9 24.1 0.00 0.36 0.03 92 1011.0
20211017051333 7 285 16.1 25.7 0.03 0.36 0.03 91 1011.0
20211017050333 7 290 19.3 29.0 0.03 0.36 0.03 90 1011.0
20211017045334 7 291 19.3 29.0 0.03 0.36 0.03 88 1011.0
20211017044333 7 297 20.9 30.6 0.03 0.36 0.03 91 1011.0
20211017043333 7 299 19.3 35.4 0.08 0.36 0.03 92 1011.1
20211017042333 7 295 19.3 25.7 0.13 0.36 0.03 92 1011.2
20211017041334 7 300 17.7 29.0 0.15 0.33 0.00 93 1011.1
20211017040333 7 293 14.5 24.1 0.20 0.33 0.33 94 1011.1
20211017035334 7 295 17.7 27.4 0.20 0.33 0.33 93 1011.0
20211017034334 7 300 19.3 29.0 0.20 0.33 0.33 93 1011.1
20211017033333 7 302 19.3 32.2 0.18 0.30 0.30 94 1011.2
20211017032333 7 301 19.3 29.0 0.10 0.23 0.23 93 1011.2
20211017031333 7 298 16.1 33.8 0.08 0.18 0.18 93 1011.3
20211017030333 8 309 20.9 30.6 0.03 0.13 0.13 91 1011.3
20211017025333 8 301 20.9 30.6 0.03 0.13 0.13 91 1011.3
20211017024334 8 302 16.1 27.4 0.03 0.13 0.13 92 1011.3
20211017023333 8 293 19.3 25.7 0.05 0.13 0.13 92 1011.2
20211017022333 8 298 19.3 27.4 0.05 0.13 0.13 91 1011.2
20211017021334 8 308 16.1 29.0 0.03 0.10 0.10 91 1011.3
20211017020334 8 301 12.9 24.1 0.03 0.10 0.10 91 1011.1
20211017015333 8 300 12.9 22.5 0.03 0.10 0.10 91 1011.0
20211017014334 8 293 17.7 25.7 0.03 0.10 0.10 90 1011.0
20211017013333 8 307 14.5 25.7 0.00 0.08 0.08 89 1011.1
20211017012333 8 306 11.3 22.5 0.00 0.08 0.08 89 1010.8
20211017011334 8 302 12.9 24.1 0.00 0.08 0.08 90 1010.6
20211017010334 8 299 12.9 17.7 0.00 0.08 0.08 92 1010.6
20211017005333 8 294 14.5 19.3 0.00 0.08 0.08 92 1010.5
20211017004333 8 293 12.9 17.7 0.00 0.10 0.08 94 1010.5
20211017003333 8 280 11.3 17.7 0.00 0.10 0.08 94 1010.4
20211017002333 8 282 9.7 17.7 0.00 0.10 0.08 94 1010.3
20211017001333 8 276 8.0 14.5 0.00 0.13 0.08 94 1010.3
20211017000333 8 279 8.0 16.1 0.00 0.15 0.08 94 1010.3
20211016235333 8 294 9.7 17.7 0.00 0.18 0.08 94 1010.3
20211016234334 8 321 6.4 17.7 0.00 0.20 0.08 93 1010.3
20211016233333 8 271 9.7 17.7 0.00 0.20 0.08 92 1010.0
20211016232333 8 272 8.0 14.5 0.00 0.20 0.08 92 1009.8
20211016231333 8 270 6.4 16.1 0.00 0.20 0.08 91 1009.7
20211016230333 8 289 11.3 19.3 0.03 0.20 0.08 90 1009.7
20211016225333 8 284 11.3 22.5 0.05 0.20 0.08 90 1009.6
20211016224333 8 295 17.7 27.4 0.05 0.20 0.08 90 1009.6
20211016223333 8 300 17.7 22.5 0.05 0.20 0.08 90 1009.5
20211016222333 8 305 11.3 20.9 0.05 0.20 0.08 90 1009.4
20211016221333 8 302 14.5 22.5 0.05 0.20 0.08 88 1009.2
20211016220333 9 316 12.9 24.1 0.03 0.18 0.05 88 1009.1
20211016215334 10 310 14.5 37.0 0.00 0.15 0.03 82 1008.9
20211016214333 11 307 25.7 37.0 0.00 0.15 0.03 71 1008.7
20211016213333 12 293 20.9 37.0 0.00 0.15 0.03 68 1008.4
20211016212333 12 296 20.9 32.2 0.00 0.15 0.03 67 1008.3
20211016211333 12 295 22.5 38.6 0.00 0.15 0.03 67 1008.2
20211016210333 11 286 24.1 37.0 0.00 0.15 0.03 68 1008.2
20211016205334 12 281 20.9 30.6 0.00 0.15 0.03 67 1007.9
20211016204333 12 299 22.5 33.8 0.00 0.15 0.03 65 1007.9
20211016203333 12 286 25.7 37.0 0.00 0.15 0.03 67 1007.8
20211016202333 12 286 22.5 32.2 0.00 0.15 0.03 69 1007.7
20211016201333 12 281 19.3 30.6 0.00 0.15 0.03 70 1007.7
20211016200333 12 289 22.5 29.0 0.00 0.15 0.03 69 1007.7
20211016195333 12 294 19.3 27.4 0.00 0.15 0.03 69 1007.7
20211016194333 13 292 22.5 35.4 0.00 0.15 0.03 66 1007.5
20211016193334 13 289 19.3 41.8 0.00 0.15 0.03 67 1007.3
20211016192333 12 287 25.7 40.2 0.00 0.15 0.03 68 1007.3
20211016191333 12 295 24.1 37.0 0.00 0.15 0.03 69 1007.2
20211016190333 13 294 27.4 37.0 0.00 0.15 0.03 65 1007.2
20211016185334 13 279 19.3 37.0 0.00 0.15 0.03 70 1007.1
20211016184333 12 286 24.1 37.0 0.00 0.15 0.03 69 1007.1
20211016183333 13 287 20.9 37.0 0.00 0.15 0.03 68 1006.9
20211016182333 13 290 22.5 32.2 0.00 0.15 0.03 69 1006.9
20211016181333 13 285 24.1 40.2 0.00 0.15 0.03 67 1006.9
20211016180333 13 283 19.3 33.8 0.00 0.15 0.03 74 1006.9
20211016175333 13 293 22.5 33.8 0.00 0.15 0.03 70 1006.9
20211016174333 12 276 12.9 20.9 0.03 0.15 0.03 81 1007.0
20211016173333 12 276 12.9 33.8 0.03 0.15 0.03 83 1007.0
20211016172333 11 288 12.9 22.5 0.03 0.15 0.03 86 1007.2
20211016171333 10 292 11.3 19.3 0.03 0.15 0.03 89 1007.4
20211016170333 9 291 14.5 22.5 0.03 0.15 0.03 88 1007.5
20211016165333 10 281 16.1 40.2 0.03 0.15 0.03 86 1007.5
20211016164333 11 309 17.7 24.1 0.00 0.13 0.00 80 1007.3
20211016163333 11 285 12.9 20.9 0.00 0.13 0.00 83 1007.3
20211016162333 11 292 14.5 24.1 0.00 0.13 0.00 85 1007.3
20211016161333 10 287 12.9 24.1 0.00 0.13 0.00 87 1007.4
20211016160333 10 286 16.1 22.5 0.00 0.13 0.00 85 1007.3
20211016155333 9 287 12.9 25.7 0.00 0.13 0.00 87 1007.3